sensor_id;sensor_type;location;lat;lon;timestamp;pressure;altitude;pressure_sealevel;temperature;humidity
5651;BME280;40241;52.684;9.758;2023-04-22T00:01:46;100896.22;;;15.85;41.46
5651;BME280;40241;52.684;9.758;2023-04-22T00:04:12;100898.53;;;15.81;41.21
5651;BME280;40241;52.684;9.758;2023-04-22T00:06:37;100895.81;;;15.75;41.44
5651;BME280;40241;52.684;9.758;2023-04-22T00:09:02;100893.34;;;15.72;41.48
5651;BME280;40241;52.684;9.758;2023-04-22T00:11:28;100902.44;;;15.72;41.44
5651;BME280;40241;52.684;9.758;2023-04-22T00:13:53;100890.13;;;15.68;41.62
5651;BME280;40241;52.684;9.758;2023-04-22T00:16:18;100872.72;;;15.67;41.60
5651;BME280;40241;52.684;9.758;2023-04-22T00:18:44;100872.19;;;15.69;41.54
5651;BME280;40241;52.684;9.758;2023-04-22T00:21:09;100866.72;;;15.63;41.59
5651;BME280;40241;52.684;9.758;2023-04-22T00:23:34;100868.72;;;15.63;41.60
5651;BME280;40241;52.684;9.758;2023-04-22T00:26:00;100870.47;;;15.66;41.61
5651;BME280;40241;52.684;9.758;2023-04-22T00:28:26;100858.63;;;15.65;41.58
5651;BME280;40241;52.684;9.758;2023-04-22T00:30:51;100864.69;;;15.64;41.84
5651;BME280;40241;52.684;9.758;2023-04-22T00:33:16;100863.41;;;15.65;41.92
5651;BME280;40241;52.684;9.758;2023-04-22T00:35:42;100858.63;;;15.65;41.68
5651;BME280;40241;52.684;9.758;2023-04-22T00:38:07;100857.09;;;15.64;41.82
5651;BME280;40241;52.684;9.758;2023-04-22T00:40:32;100855.63;;;15.63;41.63
5651;BME280;40241;52.684;9.758;2023-04-22T00:42:58;100857.63;;;15.63;41.88
5651;BME280;40241;52.684;9.758;2023-04-22T00:45:25;100853.13;;;15.60;41.72
5651;BME280;40241;52.684;9.758;2023-04-22T00:47:51;100846.09;;;15.59;41.81
5651;BME280;40241;52.684;9.758;2023-04-22T00:50:16;100850.44;;;15.54;41.80
5651;BME280;40241;52.684;9.758;2023-04-22T00:52:42;100848.91;;;15.53;41.85
5651;BME280;40241;52.684;9.758;2023-04-22T00:55:07;100847.72;;;15.49;41.97
5651;BME280;40241;52.684;9.758;2023-04-22T00:57:34;100836.38;;;15.47;41.95
5651;BME280;40241;52.684;9.758;2023-04-22T01:00:00;100839.69;;;15.45;42.19
5651;BME280;40241;52.684;9.758;2023-04-22T01:02:25;100835.69;;;15.41;42.06
5651;BME280;40241;52.684;9.758;2023-04-22T01:04:51;100833.91;;;15.43;42.08
5651;BME280;40241;52.684;9.758;2023-04-22T01:07:18;100840.47;;;15.40;42.40
5651;BME280;40241;52.684;9.758;2023-04-22T01:09:44;100827.13;;;15.39;42.22
5651;BME280;40241;52.684;9.758;2023-04-22T01:12:10;100833.94;;;15.38;42.11
5651;BME280;40241;52.684;9.758;2023-04-22T01:14:35;100828.91;;;15.36;42.09
5651;BME280;40241;52.684;9.758;2023-04-22T01:17:01;100830.47;;;15.32;42.27
5651;BME280;40241;52.684;9.758;2023-04-22T01:19:27;100829.50;;;15.29;42.25
5651;BME280;40241;52.684;9.758;2023-04-22T01:21:54;100820.47;;;15.29;42.37
5651;BME280;40241;52.684;9.758;2023-04-22T01:24:20;100826.00;;;15.29;42.54
5651;BME280;40241;52.684;9.758;2023-04-22T01:26:46;100828.50;;;15.27;42.53
5651;BME280;40241;52.684;9.758;2023-04-22T01:29:12;100817.69;;;15.29;42.53
5651;BME280;40241;52.684;9.758;2023-04-22T01:31:38;100823.44;;;15.31;42.40
5651;BME280;40241;52.684;9.758;2023-04-22T01:34:04;100820.72;;;15.25;42.53
5651;BME280;40241;52.684;9.758;2023-04-22T01:36:29;100826.63;;;15.16;42.54
5651;BME280;40241;52.684;9.758;2023-04-22T01:38:57;100819.34;;;15.13;42.66
5651;BME280;40241;52.684;9.758;2023-04-22T01:41:22;100821.66;;;15.09;42.71
5651;BME280;40241;52.684;9.758;2023-04-22T01:43:50;100816.63;;;15.08;42.77
5651;BME280;40241;52.684;9.758;2023-04-22T01:46:16;100821.19;;;15.05;42.83
5651;BME280;40241;52.684;9.758;2023-04-22T01:48:42;100810.84;;;15.06;42.72
5651;BME280;40241;52.684;9.758;2023-04-22T01:51:07;100818.72;;;15.01;42.82
5651;BME280;40241;52.684;9.758;2023-04-22T01:53:34;100832.84;;;14.98;42.81
5651;BME280;40241;52.684;9.758;2023-04-22T01:56:00;100819.47;;;15.02;42.90
5651;BME280;40241;52.684;9.758;2023-04-22T01:58:28;100812.72;;;14.97;42.88
5651;BME280;40241;52.684;9.758;2023-04-22T02:00:53;100821.28;;;14.94;43.03
5651;BME280;40241;52.684;9.758;2023-04-22T02:03:19;100815.75;;;14.94;43.01
5651;BME280;40241;52.684;9.758;2023-04-22T02:05:44;100804.66;;;14.94;43.00
5651;BME280;40241;52.684;9.758;2023-04-22T02:08:09;100797.94;;;14.89;43.03
5651;BME280;40241;52.684;9.758;2023-04-22T02:10:35;100813.84;;;14.83;43.27
5651;BME280;40241;52.684;9.758;2023-04-22T02:13:00;100811.31;;;14.85;43.30
5651;BME280;40241;52.684;9.758;2023-04-22T02:15:25;100811.78;;;14.89;43.17
5651;BME280;40241;52.684;9.758;2023-04-22T02:17:51;100815.81;;;14.88;43.13
5651;BME280;40241;52.684;9.758;2023-04-22T02:20:17;100819.59;;;14.85;43.16
5651;BME280;40241;52.684;9.758;2023-04-22T02:22:43;100815.34;;;14.84;43.22
5651;BME280;40241;52.684;9.758;2023-04-22T02:25:09;100811.06;;;14.83;43.27
5651;BME280;40241;52.684;9.758;2023-04-22T02:27:36;100818.66;;;14.83;43.37
5651;BME280;40241;52.684;9.758;2023-04-22T02:30:02;100807.06;;;14.79;43.19
5651;BME280;40241;52.684;9.758;2023-04-22T02:32:28;100812.91;;;14.75;43.34
5651;BME280;40241;52.684;9.758;2023-04-22T02:34:53;100813.94;;;14.72;43.44
5651;BME280;40241;52.684;9.758;2023-04-22T02:37:18;100803.38;;;14.71;43.46
5651;BME280;40241;52.684;9.758;2023-04-22T02:39:44;100805.91;;;14.69;43.45
5651;BME280;40241;52.684;9.758;2023-04-22T02:42:10;100806.44;;;14.67;43.63
5651;BME280;40241;52.684;9.758;2023-04-22T02:44:35;100799.47;;;14.61;43.59
5651;BME280;40241;52.684;9.758;2023-04-22T02:47:00;100802.50;;;14.57;43.56
5651;BME280;40241;52.684;9.758;2023-04-22T02:49:27;100797.47;;;14.56;43.51
5651;BME280;40241;52.684;9.758;2023-04-22T02:51:53;100787.72;;;14.49;43.70
5651;BME280;40241;52.684;9.758;2023-04-22T02:54:18;100793.03;;;14.47;44.02
5651;BME280;40241;52.684;9.758;2023-04-22T02:56:43;100784.00;;;14.41;44.00
5651;BME280;40241;52.684;9.758;2023-04-22T02:59:10;100788.31;;;14.37;43.95
5651;BME280;40241;52.684;9.758;2023-04-22T03:01:35;100781.56;;;14.32;43.95
5651;BME280;40241;52.684;9.758;2023-04-22T03:04:00;100779.03;;;14.34;44.04
5651;BME280;40241;52.684;9.758;2023-04-22T03:06:26;100779.25;;;14.36;44.03
5651;BME280;40241;52.684;9.758;2023-04-22T03:08:51;100775.75;;;14.36;44.03
5651;BME280;40241;52.684;9.758;2023-04-22T03:11:16;100774.50;;;14.31;44.10
5651;BME280;40241;52.684;9.758;2023-04-22T03:13:42;100775.78;;;14.30;44.04
5651;BME280;40241;52.684;9.758;2023-04-22T03:16:07;100784.34;;;14.32;44.17
5651;BME280;40241;52.684;9.758;2023-04-22T03:18:33;100774.28;;;14.29;44.41
5651;BME280;40241;52.684;9.758;2023-04-22T03:20:58;100779.31;;;14.31;44.35
5651;BME280;40241;52.684;9.758;2023-04-22T03:23:25;100771.25;;;14.27;44.31
5651;BME280;40241;52.684;9.758;2023-04-22T03:25:50;100776.78;;;14.27;44.31
5651;BME280;40241;52.684;9.758;2023-04-22T03:28:16;100776.78;;;14.27;44.59
5651;BME280;40241;52.684;9.758;2023-04-22T03:30:41;100774.03;;;14.27;44.45
5651;BME280;40241;52.684;9.758;2023-04-22T03:33:06;100770.50;;;14.26;44.48
5651;BME280;40241;52.684;9.758;2023-04-22T03:35:31;100770.53;;;14.21;44.40
5651;BME280;40241;52.684;9.758;2023-04-22T03:37:57;100766.78;;;14.18;44.57
5651;BME280;40241;52.684;9.758;2023-04-22T03:40:22;100763.56;;;14.14;44.51
5651;BME280;40241;52.684;9.758;2023-04-22T03:42:47;100764.31;;;14.15;44.44
5651;BME280;40241;52.684;9.758;2023-04-22T03:45:13;100763.09;;;14.10;44.59
5651;BME280;40241;52.684;9.758;2023-04-22T03:47:38;100768.63;;;14.10;44.59
5651;BME280;40241;52.684;9.758;2023-04-22T03:50:04;100762.78;;;14.14;44.92
5651;BME280;40241;52.684;9.758;2023-04-22T03:52:29;100767.78;;;14.21;44.71
5651;BME280;40241;52.684;9.758;2023-04-22T03:54:55;100747.88;;;14.22;44.73
5651;BME280;40241;52.684;9.758;2023-04-22T03:57:20;100755.69;;;14.24;44.47
5651;BME280;40241;52.684;9.758;2023-04-22T03:59:45;100760.72;;;14.20;44.80
5651;BME280;40241;52.684;9.758;2023-04-22T04:02:10;100769.03;;;14.20;44.99
5651;BME280;40241;52.684;9.758;2023-04-22T04:04:36;100759.25;;;14.19;44.80
5651;BME280;40241;52.684;9.758;2023-04-22T04:07:02;100764.06;;;14.13;44.96
5651;BME280;40241;52.684;9.758;2023-04-22T04:09:27;100762.63;;;14.06;45.17
5651;BME280;40241;52.684;9.758;2023-04-22T04:11:52;100762.09;;;14.02;45.00
5651;BME280;40241;52.684;9.758;2023-04-22T04:14:18;100765.69;;;13.97;45.11
5651;BME280;40241;52.684;9.758;2023-04-22T04:16:43;100760.16;;;13.92;45.43
5651;BME280;40241;52.684;9.758;2023-04-22T04:19:09;100771.75;;;13.90;45.46
5651;BME280;40241;52.684;9.758;2023-04-22T04:21:34;100771.53;;;13.88;45.41
5651;BME280;40241;52.684;9.758;2023-04-22T04:24:01;100777.81;;;13.89;45.29
5651;BME280;40241;52.684;9.758;2023-04-22T04:26:27;100774.06;;;13.81;45.50
5651;BME280;40241;52.684;9.758;2023-04-22T04:28:53;100771.06;;;13.79;45.48
5651;BME280;40241;52.684;9.758;2023-04-22T04:31:18;100777.88;;;13.78;45.53
5651;BME280;40241;52.684;9.758;2023-04-22T04:33:44;100773.13;;;13.73;45.49
5651;BME280;40241;52.684;9.758;2023-04-22T04:36:10;100774.88;;;13.70;45.54
5651;BME280;40241;52.684;9.758;2023-04-22T04:38:36;100771.59;;;13.72;45.58
5651;BME280;40241;52.684;9.758;2023-04-22T04:41:01;100766.06;;;13.72;45.65
5651;BME280;40241;52.684;9.758;2023-04-22T04:43:28;100766.09;;;13.66;45.77
5651;BME280;40241;52.684;9.758;2023-04-22T04:45:53;100756.03;;;13.69;45.48
5651;BME280;40241;52.684;9.758;2023-04-22T04:48:18;100757.06;;;13.66;45.85
5651;BME280;40241;52.684;9.758;2023-04-22T04:50:44;100749.28;;;13.64;45.95
5651;BME280;40241;52.684;9.758;2023-04-22T04:53:10;100754.56;;;13.62;45.89
5651;BME280;40241;52.684;9.758;2023-04-22T04:55:36;100741.00;;;13.59;46.12
5651;BME280;40241;52.684;9.758;2023-04-22T04:58:02;100747.78;;;13.63;46.04
5651;BME280;40241;52.684;9.758;2023-04-22T05:00:27;100756.03;;;13.69;46.06
5651;BME280;40241;52.684;9.758;2023-04-22T05:02:53;100756.00;;;13.74;46.12
5651;BME280;40241;52.684;9.758;2023-04-22T05:05:18;100758.50;;;13.78;46.09
5651;BME280;40241;52.684;9.758;2023-04-22T05:07:43;100755.69;;;13.83;46.27
5651;BME280;40241;52.684;9.758;2023-04-22T05:10:09;100751.88;;;13.92;46.12
5651;BME280;40241;52.684;9.758;2023-04-22T05:12:34;100745.81;;;13.99;46.09
5651;BME280;40241;52.684;9.758;2023-04-22T05:15:00;100744.50;;;14.05;45.99
5651;BME280;40241;52.684;9.758;2023-04-22T05:17:25;100749.72;;;14.14;46.18
5651;BME280;40241;52.684;9.758;2023-04-22T05:19:51;100759.94;;;14.25;46.11
5651;BME280;40241;52.684;9.758;2023-04-22T05:22:17;100755.38;;;14.33;46.19
5651;BME280;40241;52.684;9.758;2023-04-22T05:24:42;100750.72;;;14.47;45.84
5651;BME280;40241;52.684;9.758;2023-04-22T05:27:07;100751.41;;;14.58;45.83
5651;BME280;40241;52.684;9.758;2023-04-22T05:29:33;100750.53;;;14.69;45.85
5651;BME280;40241;52.684;9.758;2023-04-22T05:31:58;100749.22;;;14.75;45.90
5651;BME280;40241;52.684;9.758;2023-04-22T05:34:24;100752.97;;;14.78;45.83
5651;BME280;40241;52.684;9.758;2023-04-22T05:36:49;100748.41;;;14.80;45.85
5651;BME280;40241;52.684;9.758;2023-04-22T05:39:15;100750.13;;;14.83;45.79
5651;BME280;40241;52.684;9.758;2023-04-22T05:41:40;100753.13;;;14.85;45.80
5651;BME280;40241;52.684;9.758;2023-04-22T05:44:05;100750.59;;;14.87;45.91
5651;BME280;40241;52.684;9.758;2023-04-22T05:46:32;100763.09;;;14.94;46.09
5651;BME280;40241;52.684;9.758;2023-04-22T05:48:57;100765.31;;;15.01;46.08
5651;BME280;40241;52.684;9.758;2023-04-22T05:51:23;100762.19;;;15.10;45.81
5651;BME280;40241;52.684;9.758;2023-04-22T05:53:49;100750.31;;;15.15;45.87
5651;BME280;40241;52.684;9.758;2023-04-22T05:56:14;100752.53;;;15.17;45.88
5651;BME280;40241;52.684;9.758;2023-04-22T05:58:40;100753.53;;;15.19;46.06
5651;BME280;40241;52.684;9.758;2023-04-22T06:01:06;100747.69;;;15.23;45.93
5651;BME280;40241;52.684;9.758;2023-04-22T06:03:31;100750.84;;;15.32;45.66
5651;BME280;40241;52.684;9.758;2023-04-22T06:05:57;100745.44;;;15.40;45.63
5651;BME280;40241;52.684;9.758;2023-04-22T06:08:22;100756.72;;;15.47;45.78
5651;BME280;40241;52.684;9.758;2023-04-22T06:10:47;100752.84;;;15.56;45.73
5651;BME280;40241;52.684;9.758;2023-04-22T06:13:13;100753.81;;;15.58;45.74
5651;BME280;40241;52.684;9.758;2023-04-22T06:15:39;100747.97;;;15.62;45.81
5651;BME280;40241;52.684;9.758;2023-04-22T06:18:04;100753.22;;;15.65;45.67
5651;BME280;40241;52.684;9.758;2023-04-22T06:20:29;100751.34;;;15.73;45.55
5651;BME280;40241;52.684;9.758;2023-04-22T06:22:57;100753.53;;;15.81;45.54
5651;BME280;40241;52.684;9.758;2023-04-22T06:25:22;100747.44;;;15.82;45.72
5651;BME280;40241;52.684;9.758;2023-04-22T06:27:48;100747.88;;;15.86;45.61
5651;BME280;40241;52.684;9.758;2023-04-22T06:30:13;100757.63;;;15.93;45.71
5651;BME280;40241;52.684;9.758;2023-04-22T06:32:39;100760.84;;;15.97;45.52
5651;BME280;40241;52.684;9.758;2023-04-22T06:35:04;100752.97;;;16.01;45.58
5651;BME280;40241;52.684;9.758;2023-04-22T06:37:30;100749.78;;;16.10;45.67
5651;BME280;40241;52.684;9.758;2023-04-22T06:39:56;100751.44;;;16.18;45.49
5651;BME280;40241;52.684;9.758;2023-04-22T06:42:21;100748.03;;;16.25;45.51
5651;BME280;40241;52.684;9.758;2023-04-22T06:44:46;100741.88;;;16.32;45.23
5651;BME280;40241;52.684;9.758;2023-04-22T06:47:12;100750.00;;;16.43;45.42
5651;BME280;40241;52.684;9.758;2023-04-22T06:49:37;100729.66;;;16.54;45.46
5651;BME280;40241;52.684;9.758;2023-04-22T06:52:04;100734.03;;;16.63;45.60
5651;BME280;40241;52.684;9.758;2023-04-22T06:54:29;100735.56;;;16.77;45.29
5651;BME280;40241;52.684;9.758;2023-04-22T06:56:56;100729.81;;;16.88;45.37
5651;BME280;40241;52.684;9.758;2023-04-22T06:59:21;100729.59;;;16.99;45.16
5651;BME280;40241;52.684;9.758;2023-04-22T07:01:47;100728.84;;;17.11;45.23
5651;BME280;40241;52.684;9.758;2023-04-22T07:04:12;100721.53;;;17.21;45.15
5651;BME280;40241;52.684;9.758;2023-04-22T07:06:38;100721.53;;;17.35;45.08
5651;BME280;40241;52.684;9.758;2023-04-22T07:09:03;100723.25;;;17.51;45.09
5651;BME280;40241;52.684;9.758;2023-04-22T07:11:28;100732.31;;;17.64;44.76
5651;BME280;40241;52.684;9.758;2023-04-22T07:13:55;100730.44;;;17.80;44.86
5651;BME280;40241;52.684;9.758;2023-04-22T07:16:21;100720.53;;;17.92;44.65
5651;BME280;40241;52.684;9.758;2023-04-22T07:18:46;100727.00;;;18.08;44.57
5651;BME280;40241;52.684;9.758;2023-04-22T07:21:11;100731.19;;;18.22;44.42
5651;BME280;40241;52.684;9.758;2023-04-22T07:23:37;100730.25;;;18.40;44.33
5651;BME280;40241;52.684;9.758;2023-04-22T07:26:03;100726.31;;;18.56;44.23
5651;BME280;40241;52.684;9.758;2023-04-22T07:28:28;100724.59;;;18.74;44.14
5651;BME280;40241;52.684;9.758;2023-04-22T07:30:54;100726.16;;;18.90;44.22
5651;BME280;40241;52.684;9.758;2023-04-22T07:33:19;100724.78;;;19.04;43.96
5651;BME280;40241;52.684;9.758;2023-04-22T07:35:44;100714.25;;;19.17;43.62
5651;BME280;40241;52.684;9.758;2023-04-22T07:38:11;100722.69;;;19.32;43.38
5651;BME280;40241;52.684;9.758;2023-04-22T07:40:36;100721.84;;;19.45;43.53
5651;BME280;40241;52.684;9.758;2023-04-22T07:43:02;100718.16;;;19.58;43.43
5651;BME280;40241;52.684;9.758;2023-04-22T07:45:27;100718.19;;;19.73;43.14
5651;BME280;40241;52.684;9.758;2023-04-22T07:47:53;100720.09;;;19.85;42.89
5651;BME280;40241;52.684;9.758;2023-04-22T07:50:18;100710.63;;;19.96;42.81
5651;BME280;40241;52.684;9.758;2023-04-22T07:52:43;100711.00;;;20.07;42.56
5651;BME280;40241;52.684;9.758;2023-04-22T07:55:09;100718.28;;;20.18;42.31
5651;BME280;40241;52.684;9.758;2023-04-22T07:57:34;100712.34;;;20.29;42.69
5651;BME280;40241;52.684;9.758;2023-04-22T08:00:07;100708.06;;;20.43;42.31
5651;BME280;40241;52.684;9.758;2023-04-22T08:02:33;100704.69;;;20.52;42.31
5651;BME280;40241;52.684;9.758;2023-04-22T08:04:58;100704.13;;;20.61;42.25
5651;BME280;40241;52.684;9.758;2023-04-22T08:07:24;100704.69;;;20.67;42.11
5651;BME280;40241;52.684;9.758;2023-04-22T08:09:50;100693.50;;;20.75;42.04
5651;BME280;40241;52.684;9.758;2023-04-22T08:12:16;100702.59;;;20.75;42.27
5651;BME280;40241;52.684;9.758;2023-04-22T08:14:41;100703.53;;;20.78;42.26
5651;BME280;40241;52.684;9.758;2023-04-22T08:17:06;100693.47;;;20.82;42.03
5651;BME280;40241;52.684;9.758;2023-04-22T08:19:31;100698.31;;;20.89;41.80
5651;BME280;40241;52.684;9.758;2023-04-22T08:21:57;100706.28;;;20.93;41.74
5651;BME280;40241;52.684;9.758;2023-04-22T08:24:22;100710.94;;;20.98;41.94
5651;BME280;40241;52.684;9.758;2023-04-22T08:26:47;100712.44;;;21.07;42.07
5651;BME280;40241;52.684;9.758;2023-04-22T08:29:13;100699.91;;;21.23;41.88
5651;BME280;40241;52.684;9.758;2023-04-22T08:31:38;100701.88;;;21.37;41.81
5651;BME280;40241;52.684;9.758;2023-04-22T08:34:04;100697.75;;;21.46;41.54
5651;BME280;40241;52.684;9.758;2023-04-22T08:36:29;100700.88;;;21.50;41.38
5651;BME280;40241;52.684;9.758;2023-04-22T08:38:55;100696.53;;;21.64;41.43
5651;BME280;40241;52.684;9.758;2023-04-22T08:41:21;100699.78;;;21.78;41.18
5651;BME280;40241;52.684;9.758;2023-04-22T08:43:48;100697.44;;;21.99;41.24
5651;BME280;40241;52.684;9.758;2023-04-22T08:46:14;100701.22;;;22.18;40.71
5651;BME280;40241;52.684;9.758;2023-04-22T08:48:41;100698.81;;;22.39;40.57
5651;BME280;40241;52.684;9.758;2023-04-22T08:51:07;100696.38;;;22.61;40.27
5651;BME280;40241;52.684;9.758;2023-04-22T08:53:33;100692.13;;;22.77;40.20
5651;BME280;40241;52.684;9.758;2023-04-22T08:55:58;100692.44;;;22.98;40.02
5651;BME280;40241;52.684;9.758;2023-04-22T08:58:24;100690.78;;;23.12;39.60
5651;BME280;40241;52.684;9.758;2023-04-22T09:00:50;100692.25;;;23.30;39.54
5651;BME280;40241;52.684;9.758;2023-04-22T09:03:16;100691.19;;;23.43;39.29
5651;BME280;40241;52.684;9.758;2023-04-22T09:05:44;100686.56;;;23.64;39.14
5651;BME280;40241;52.684;9.758;2023-04-22T09:08:09;100680.88;;;23.81;38.85
5651;BME280;40241;52.684;9.758;2023-04-22T09:10:36;100683.22;;;24.02;38.61
5651;BME280;40241;52.684;9.758;2023-04-22T09:13:03;100679.72;;;24.11;38.67
5651;BME280;40241;52.684;9.758;2023-04-22T09:15:30;100675.00;;;24.23;38.54
5651;BME280;40241;52.684;9.758;2023-04-22T09:17:55;100678.00;;;24.35;37.98
5651;BME280;40241;52.684;9.758;2023-04-22T09:20:26;100673.28;;;24.47;37.46
5651;BME280;40241;52.684;9.758;2023-04-22T09:22:53;100673.91;;;24.65;38.20
5651;BME280;40241;52.684;9.758;2023-04-22T09:25:24;100670.34;;;24.74;37.82
5651;BME280;40241;52.684;9.758;2023-04-22T09:27:50;100663.88;;;24.81;38.01
5651;BME280;40241;52.684;9.758;2023-04-22T09:30:17;100668.91;;;24.92;37.76
5651;BME280;40241;52.684;9.758;2023-04-22T09:33:04;100660.44;;;25.01;35.80
5651;BME280;40241;52.684;9.758;2023-04-22T09:35:31;100667.25;;;25.08;37.28
5651;BME280;40241;52.684;9.758;2023-04-22T09:37:58;100660.00;;;25.24;37.40
5651;BME280;40241;52.684;9.758;2023-04-22T09:40:24;100660.56;;;25.32;36.95
5651;BME280;40241;52.684;9.758;2023-04-22T09:42:55;100659.97;;;25.43;36.84
5651;BME280;40241;52.684;9.758;2023-04-22T09:45:36;100656.22;;;25.60;36.21
5651;BME280;40241;52.684;9.758;2023-04-22T09:48:06;100658.38;;;25.71;35.96
5651;BME280;40241;52.684;9.758;2023-04-22T09:50:33;100656.91;;;25.79;36.57
5651;BME280;40241;52.684;9.758;2023-04-22T09:53:11;100657.44;;;25.87;36.27
5651;BME280;40241;52.684;9.758;2023-04-22T09:55:39;100640.50;;;25.97;35.87
5651;BME280;40241;52.684;9.758;2023-04-22T09:58:17;100646.56;;;26.03;36.13
5651;BME280;40241;52.684;9.758;2023-04-22T10:00:53;100648.63;;;26.12;35.23
5651;BME280;40241;52.684;9.758;2023-04-22T10:03:20;100630.59;;;26.17;35.91
5651;BME280;40241;52.684;9.758;2023-04-22T10:05:45;100635.00;;;26.30;35.64
5651;BME280;40241;52.684;9.758;2023-04-22T10:08:12;100631.22;;;26.37;35.31
5651;BME280;40241;52.684;9.758;2023-04-22T10:10:38;100621.34;;;26.47;35.46
5651;BME280;40241;52.684;9.758;2023-04-22T10:13:05;100618.94;;;26.53;35.78
5651;BME280;40241;52.684;9.758;2023-04-22T10:15:32;100615.16;;;26.60;35.63
5651;BME280;40241;52.684;9.758;2023-04-22T10:17:58;100618.25;;;26.64;35.51
5651;BME280;40241;52.684;9.758;2023-04-22T10:20:25;100610.63;;;26.67;35.03
5651;BME280;40241;52.684;9.758;2023-04-22T10:22:55;100609.66;;;26.62;34.70
5651;BME280;40241;52.684;9.758;2023-04-22T10:25:22;100615.00;;;26.58;34.95
5651;BME280;40241;52.684;9.758;2023-04-22T10:28:04;100610.34;;;26.51;34.21
5651;BME280;40241;52.684;9.758;2023-04-22T10:30:34;100614.97;;;26.47;34.99
5651;BME280;40241;52.684;9.758;2023-04-22T10:41:33;100602.66;;;26.63;33.61
5651;BME280;40241;52.684;9.758;2023-04-22T10:44:05;100602.00;;;26.74;34.54
5651;BME280;40241;52.684;9.758;2023-04-22T10:49:08;100595.25;;;27.24;32.60
5651;BME280;40241;52.684;9.758;2023-04-22T10:51:54;100585.34;;;27.46;32.74
5651;BME280;40241;52.684;9.758;2023-04-22T10:59:28;100592.63;;;27.61;33.19
5651;BME280;40241;52.684;9.758;2023-04-22T11:02:00;100589.44;;;27.43;32.69
5651;BME280;40241;52.684;9.758;2023-04-22T11:04:25;100576.47;;;27.28;33.23
5651;BME280;40241;52.684;9.758;2023-04-22T11:09:53;100589.44;;;26.99;33.39
5651;BME280;40241;52.684;9.758;2023-04-22T11:15:09;100577.44;;;27.10;33.04
5651;BME280;40241;52.684;9.758;2023-04-22T11:17:35;100563.88;;;27.41;33.17
5651;BME280;40241;52.684;9.758;2023-04-22T11:20:02;100567.31;;;27.51;32.79
5651;BME280;40241;52.684;9.758;2023-04-22T11:22:33;100560.28;;;27.64;31.80
5651;BME280;40241;52.684;9.758;2023-04-22T11:25:00;100556.59;;;27.84;32.16
5651;BME280;40241;52.684;9.758;2023-04-22T11:27:26;100560.78;;;28.06;32.30
5651;BME280;40241;52.684;9.758;2023-04-22T11:30:05;100574.38;;;28.22;30.67
5651;BME280;40241;52.684;9.758;2023-04-22T11:32:34;100555.22;;;28.08;32.09
5651;BME280;40241;52.684;9.758;2023-04-22T11:35:08;100546.31;;;28.26;31.94
5651;BME280;40241;52.684;9.758;2023-04-22T11:37:57;100543.16;;;28.45;30.57
5651;BME280;40241;52.684;9.758;2023-04-22T11:40:26;100546.44;;;28.53;31.82
5651;BME280;40241;52.684;9.758;2023-04-22T11:42:52;100547.06;;;28.63;31.87
5651;BME280;40241;52.684;9.758;2023-04-22T11:45:18;100545.09;;;28.65;31.98
5651;BME280;40241;52.684;9.758;2023-04-22T11:47:44;100547.50;;;28.71;31.76
5651;BME280;40241;52.684;9.758;2023-04-22T11:50:14;100534.94;;;28.74;31.87
5651;BME280;40241;52.684;9.758;2023-04-22T11:53:01;100533.56;;;28.75;31.58
5651;BME280;40241;52.684;9.758;2023-04-22T11:55:27;100519.63;;;28.79;31.73
5651;BME280;40241;52.684;9.758;2023-04-22T11:58:17;100507.38;;;28.88;30.92
5651;BME280;40241;52.684;9.758;2023-04-22T12:00:47;100508.28;;;29.04;31.03
5651;BME280;40241;52.684;9.758;2023-04-22T12:03:23;100497.34;;;29.12;31.46
5651;BME280;40241;52.684;9.758;2023-04-22T12:05:53;100500.19;;;29.12;30.61
5651;BME280;40241;52.684;9.758;2023-04-22T12:08:21;100505.88;;;29.12;30.86
5651;BME280;40241;52.684;9.758;2023-04-22T12:10:54;100486.06;;;29.26;31.05
5651;BME280;40241;52.684;9.758;2023-04-22T12:13:28;100511.81;;;29.43;30.21
5651;BME280;40241;52.684;9.758;2023-04-22T12:15:58;100500.88;;;29.51;30.96
5651;BME280;40241;52.684;9.758;2023-04-22T12:18:31;100491.75;;;29.53;29.89
5651;BME280;40241;52.684;9.758;2023-04-22T12:21:01;100499.72;;;29.43;30.87
5651;BME280;40241;52.684;9.758;2023-04-22T12:23:57;100492.06;;;29.45;30.00
5651;BME280;40241;52.684;9.758;2023-04-22T12:26:24;100492.59;;;29.42;31.31
5651;BME280;40241;52.684;9.758;2023-04-22T12:28:53;100480.19;;;29.22;30.80
5651;BME280;40241;52.684;9.758;2023-04-22T12:31:19;100478.34;;;29.01;31.09
5651;BME280;40241;52.684;9.758;2023-04-22T12:33:45;100483.06;;;28.83;31.24
5651;BME280;40241;52.684;9.758;2023-04-22T12:36:11;100475.97;;;28.70;31.11
5651;BME280;40241;52.684;9.758;2023-04-22T12:38:37;100478.75;;;28.57;31.11
5651;BME280;40241;52.684;9.758;2023-04-22T12:41:04;100480.84;;;28.56;31.07
5651;BME280;40241;52.684;9.758;2023-04-22T12:43:30;100474.69;;;28.60;31.25
5651;BME280;40241;52.684;9.758;2023-04-22T12:45:57;100484.88;;;28.65;31.23
5651;BME280;40241;52.684;9.758;2023-04-22T12:48:23;100472.19;;;28.66;31.32
5651;BME280;40241;52.684;9.758;2023-04-22T12:50:48;100472.91;;;28.66;31.55
5651;BME280;40241;52.684;9.758;2023-04-22T12:53:14;100466.88;;;28.72;31.00
5651;BME280;40241;52.684;9.758;2023-04-22T12:55:40;100471.16;;;28.73;31.03
5651;BME280;40241;52.684;9.758;2023-04-22T12:58:05;100464.75;;;28.72;31.28
5651;BME280;40241;52.684;9.758;2023-04-22T13:00:31;100452.81;;;28.74;31.29
5651;BME280;40241;52.684;9.758;2023-04-22T13:02:56;100467.78;;;28.63;31.06
5651;BME280;40241;52.684;9.758;2023-04-22T13:05:23;100471.34;;;28.63;30.97
5651;BME280;40241;52.684;9.758;2023-04-22T13:07:49;100462.44;;;28.69;30.72
5651;BME280;40241;52.684;9.758;2023-04-22T13:10:15;100455.75;;;28.76;30.78
5651;BME280;40241;52.684;9.758;2023-04-22T13:12:41;100465.09;;;28.92;30.59
5651;BME280;40241;52.684;9.758;2023-04-22T13:15:08;100451.41;;;29.00;30.34
5651;BME280;40241;52.684;9.758;2023-04-22T13:17:34;100451.50;;;29.02;30.17
5651;BME280;40241;52.684;9.758;2023-04-22T13:20:00;100451.66;;;29.18;30.66